Time;durP1;ratioP1;P1;durP2;ratioP2;P2;SDS_P1;SDS_P2;PMS_P1;PMS_P2;Temp;Humidity;BMP_temperature;BMP_pressure;BME280_temperature;BME280_humidity;BME280_pressure;Samples;Min_cycle;Max_cycle;Signal;HPM_P1;HPM_P2
2022/06/29 00:00:07;;;;;;;1.93;1.83;;;18.40;99.90;;;;;;5180632;28;20480;-45
2022/06/29 00:02:37;;;;;;;1.83;1.37;;;18.40;99.90;;;;;;5215554;28;20203;-45
2022/06/29 00:05:08;;;;;;;1.80;1.67;;;18.40;99.90;;;;;;5204761;28;20445;-43
2022/06/29 00:07:40;;;;;;;1.90;1.80;;;18.40;99.90;;;;;;5224923;28;20183;-45
2022/06/29 00:10:13;;;;;;;1.93;1.83;;;18.30;99.90;;;;;;5220526;28;20539;-43
2022/06/29 00:12:44;;;;;;;2.80;1.90;;;18.30;99.90;;;;;;5222177;28;20449;-45
2022/06/29 00:15:16;;;;;;;1.27;1.17;;;18.30;99.90;;;;;;5224826;28;20488;-44
2022/06/29 00:17:47;;;;;;;5.13;2.23;;;18.20;99.90;;;;;;5214151;28;20938;-44
2022/06/29 00:20:17;;;;;;;2.00;1.90;;;18.20;99.90;;;;;;5214139;28;20429;-44
2022/06/29 00:22:48;;;;;;;1.37;1.37;;;18.20;99.90;;;;;;5223427;28;20222;-44
2022/06/29 00:25:19;;;;;;;1.40;1.30;;;18.10;99.90;;;;;;5228325;28;20186;-44
2022/06/29 00:27:49;;;;;;;1.90;1.90;;;18.10;99.90;;;;;;5192937;28;20441;-45
2022/06/29 00:30:20;;;;;;;1.80;1.70;;;18.10;99.90;;;;;;5219014;28;20191;-44
2022/06/29 00:32:51;;;;;;;4.33;1.60;;;18.10;99.90;;;;;;5223532;28;20207;-44
2022/06/29 00:35:21;;;;;;;1.53;1.47;;;18.10;99.90;;;;;;5204165;28;20195;-44
2022/06/29 00:37:52;;;;;;;1.80;1.70;;;18.00;99.90;;;;;;5211810;28;20619;-46
2022/06/29 00:40:22;;;;;;;1.90;1.53;;;18.00;99.90;;;;;;5233009;28;20194;-44
2022/06/29 00:42:53;;;;;;;1.33;1.33;;;18.00;99.90;;;;;;5210757;28;20230;-45
2022/06/29 00:45:23;;;;;;;7.13;1.77;;;18.00;99.90;;;;;;5211799;28;20507;-44
2022/06/29 00:47:54;;;;;;;1.87;1.77;;;18.00;99.90;;;;;;5229163;28;20179;-45
2022/06/29 00:50:30;;;;;;;2.70;1.80;;;17.90;99.90;;;;;;5209994;28;20206;-45
2022/06/29 00:53:03;;;;;;;2.23;1.90;;;17.90;99.90;;;;;;5207841;28;20558;-46
2022/06/29 00:55:40;;;;;;;2.00;1.73;;;17.80;99.90;;;;;;5223871;28;20458;-45
2022/06/29 00:58:11;;;;;;;1.53;1.53;;;17.80;99.90;;;;;;5225648;28;20457;-45
2022/06/29 01:00:42;;;;;;;1.60;1.50;;;17.80;99.90;;;;;;5224175;28;20441;-47
2022/06/29 01:03:13;;;;;;;1.43;1.43;;;17.80;99.90;;;;;;5228801;28;20547;-46
2022/06/29 01:05:44;;;;;;;2.43;1.60;;;17.80;99.90;;;;;;5205439;28;20526;-45
2022/06/29 01:08:14;;;;;;;1.70;1.03;;;17.80;99.90;;;;;;5215240;28;20744;-43
2022/06/29 01:10:45;;;;;;;1.97;1.43;;;17.80;99.90;;;;;;5190714;28;20233;-45
2022/06/29 01:13:16;;;;;;;1.77;1.77;;;17.70;99.90;;;;;;5226689;28;20589;-46
2022/06/29 01:15:47;;;;;;;4.13;1.87;;;17.70;99.90;;;;;;5229853;28;20194;-44
2022/06/29 01:18:18;;;;;;;2.10;2.07;;;17.70;99.90;;;;;;5194758;28;20437;-44
2022/06/29 01:20:48;;;;;;;2.03;1.93;;;17.60;99.90;;;;;;5212534;28;20669;-46
2022/06/29 01:23:19;;;;;;;1.63;1.63;;;17.60;99.90;;;;;;5224866;28;20238;-44
2022/06/29 01:25:50;;;;;;;1.87;1.87;;;17.50;99.90;;;;;;5208662;28;20646;-46
2022/06/29 01:28:21;;;;;;;5.07;2.10;;;17.50;99.90;;;;;;5212431;28;20465;-45
2022/06/29 01:30:51;;;;;;;2.50;2.40;;;17.50;99.90;;;;;;5224835;28;20245;-45
2022/06/29 01:33:22;;;;;;;2.67;2.47;;;17.50;99.90;;;;;;5220905;28;20223;-46
2022/06/29 01:35:52;;;;;;;3.07;2.23;;;17.40;99.90;;;;;;5222674;28;20566;-48
2022/06/29 01:38:23;;;;;;;4.50;2.77;;;17.40;99.90;;;;;;5223125;28;20238;-48
2022/06/29 01:40:53;;;;;;;2.50;2.30;;;17.30;99.90;;;;;;5218797;28;20184;-45
2022/06/29 01:43:24;;;;;;;8.53;2.00;;;17.30;99.90;;;;;;5227911;28;20225;-47
2022/06/29 01:45:55;;;;;;;2.07;2.07;;;17.20;99.90;;;;;;5225577;28;20195;-45
2022/06/29 01:48:25;;;;;;;4.23;1.90;;;17.20;99.90;;;;;;5202472;28;20196;-45
2022/06/29 01:50:56;;;;;;;2.43;2.00;;;17.20;99.90;;;;;;5218667;28;20207;-45
2022/06/29 01:53:27;;;;;;;2.53;2.33;;;17.10;99.90;;;;;;5207577;28;20536;-44
2022/06/29 01:55:57;;;;;;;2.10;2.00;;;17.10;99.90;;;;;;5212379;28;20187;-46
2022/06/29 01:58:28;;;;;;;3.53;1.97;;;17.10;99.90;;;;;;5217339;28;20183;-44
2022/06/29 02:00:58;;;;;;;2.40;2.30;;;17.10;99.90;;;;;;5226263;28;20198;-46
2022/06/29 02:03:29;;;;;;;9.13;2.50;;;17.10;99.90;;;;;;5222525;28;20190;-45
2022/06/29 02:05:59;;;;;;;2.00;1.80;;;17.10;99.90;;;;;;5221447;28;20245;-46
2022/06/29 02:08:30;;;;;;;2.10;1.63;;;17.10;99.90;;;;;;5224520;28;20195;-46
2022/06/29 02:11:01;;;;;;;2.07;1.97;;;17.10;99.90;;;;;;5206848;28;20197;-44
2022/06/29 02:13:32;;;;;;;1.87;1.70;;;17.10;99.90;;;;;;5209230;28;20210;-44
2022/06/29 02:16:03;;;;;;;2.20;2.00;;;17.10;99.90;;;;;;5204334;28;20179;-44
2022/06/29 02:18:33;;;;;;;2.20;2.20;;;17.00;99.90;;;;;;5226035;28;20332;-45
2022/06/29 02:21:04;;;;;;;2.07;1.97;;;17.00;99.90;;;;;;5207694;28;20194;-45
2022/06/29 02:23:34;;;;;;;6.57;2.80;;;16.90;99.90;;;;;;5203235;28;20679;-45
2022/06/29 02:26:06;;;;;;;2.47;2.37;;;16.90;99.90;;;;;;5218382;28;20175;-45
2022/06/29 02:28:37;;;;;;;6.40;2.40;;;16.90;99.90;;;;;;5232653;28;20183;-45
2022/06/29 02:36:46;;;;;;;1.67;1.67;;;16.80;99.90;;;;;;5199891;28;20574;-46
2022/06/29 02:39:16;;;;;;;1.63;1.53;;;16.90;99.90;;;;;;5193880;28;20533;-45
2022/06/29 02:41:47;;;;;;;3.10;1.60;;;16.90;99.90;;;;;;5221925;28;20203;-44
2022/06/29 02:44:17;;;;;;;1.80;1.70;;;17.00;99.90;;;;;;5226002;28;20485;-45
2022/06/29 02:46:48;;;;;;;4.40;1.90;;;17.00;99.90;;;;;;5218619;28;20195;-45
2022/06/29 02:49:19;;;;;;;1.53;1.53;;;17.10;99.90;;;;;;5220481;28;20605;-45
2022/06/29 02:51:50;;;;;;;3.07;1.97;;;17.10;99.90;;;;;;5212434;28;20289;-45
2022/06/29 02:54:20;;;;;;;2.80;1.77;;;17.10;99.90;;;;;;5219364;28;20178;-46
2022/06/29 02:56:53;;;;;;;4.13;1.70;;;17.10;99.90;;;;;;5221088;28;20183;-45
2022/06/29 02:59:24;;;;;;;3.60;2.00;;;17.10;99.90;;;;;;5225023;28;20184;-45
2022/06/29 03:01:54;;;;;;;4.50;1.70;;;17.10;99.90;;;;;;5221194;28;20472;-45
2022/06/29 03:04:25;;;;;;;4.80;1.80;;;17.10;99.90;;;;;;5203196;28;20215;-45
2022/06/29 03:06:55;;;;;;;2.10;1.80;;;17.10;99.90;;;;;;5218780;28;20182;-45
2022/06/29 03:09:26;;;;;;;2.40;2.20;;;17.10;99.90;;;;;;5227943;28;20678;-44
2022/06/29 03:11:57;;;;;;;1.50;1.40;;;17.10;99.90;;;;;;5222803;28;20241;-45
2022/06/29 03:14:27;;;;;;;2.13;2.03;;;17.20;99.90;;;;;;5206315;28;20992;-45
2022/06/29 03:16:58;;;;;;;2.53;1.47;;;17.20;99.90;;;;;;5198015;28;20179;-45
2022/06/29 03:19:28;;;;;;;1.60;1.50;;;17.20;99.90;;;;;;5223429;28;20199;-45
2022/06/29 03:21:59;;;;;;;1.70;1.60;;;17.20;99.90;;;;;;5219052;22;20494;-48
2022/06/29 03:24:30;;;;;;;1.27;1.27;;;17.20;99.90;;;;;;5234303;28;20559;-48
2022/06/29 03:27:00;;;;;;;1.97;1.87;;;17.20;99.90;;;;;;5223935;28;20175;-48
2022/06/29 03:29:31;;;;;;;1.63;1.53;;;17.20;99.90;;;;;;5238889;28;20218;-47
2022/06/29 03:32:02;;;;;;;1.63;1.53;;;17.20;99.90;;;;;;5226766;28;20234;-46
2022/06/29 03:34:32;;;;;;;2.10;1.53;;;17.30;99.90;;;;;;5217388;28;20182;-47
2022/06/29 03:37:03;;;;;;;2.20;1.60;;;17.40;99.90;;;;;;5224778;28;20218;-47
2022/06/29 03:39:34;;;;;;;2.20;2.10;;;17.30;99.90;;;;;;5211188;28;20179;-47
2022/06/29 03:42:04;;;;;;;2.20;2.03;;;17.40;99.90;;;;;;5199900;28;20230;-48
2022/06/29 03:44:35;;;;;;;5.70;1.33;;;17.40;99.90;;;;;;5202535;28;20206;-46
2022/06/29 03:47:07;;;;;;;3.80;1.57;;;17.50;99.90;;;;;;5207982;28;20190;-47
2022/06/29 03:49:38;;;;;;;2.70;1.50;;;17.60;99.90;;;;;;5203091;28;20195;-47
2022/06/29 03:52:09;;;;;;;1.27;1.17;;;17.60;99.90;;;;;;5212278;28;20560;-45
2022/06/29 03:54:40;;;;;;;2.17;2.03;;;17.70;99.90;;;;;;5211772;28;20191;-47
2022/06/29 03:57:10;;;;;;;1.40;1.40;;;17.70;99.90;;;;;;5207220;28;20941;-46
2022/06/29 03:59:41;;;;;;;1.80;1.70;;;17.70;99.90;;;;;;5220006;28;20187;-47
2022/06/29 04:02:11;;;;;;;1.60;1.60;;;17.90;99.90;;;;;;5228889;28;20206;-47
2022/06/29 04:04:42;;;;;;;2.20;1.70;;;18.00;99.90;;;;;;5204467;28;20282;-47
2022/06/29 04:07:13;;;;;;;1.67;1.57;;;18.10;99.90;;;;;;5204446;28;20720;-48
2022/06/29 04:09:43;;;;;;;4.80;1.77;;;18.20;99.90;;;;;;5215802;28;20211;-47
2022/06/29 04:12:14;;;;;;;3.27;1.60;;;18.20;99.90;;;;;;5221283;28;20207;-48
2022/06/29 04:14:44;;;;;;;1.43;1.43;;;18.30;99.90;;;;;;5224464;28;20174;-45
2022/06/29 04:17:15;;;;;;;5.17;1.80;;;18.50;99.90;;;;;;5228885;28;20182;-49
2022/06/29 04:19:46;;;;;;;2.47;1.50;;;18.60;99.90;;;;;;5219935;28;20250;-44
2022/06/29 04:22:17;;;;;;;1.90;1.80;;;18.80;99.90;;;;;;5186100;28;20214;-45
2022/06/29 04:24:47;;;;;;;1.57;1.57;;;18.90;99.90;;;;;;5206961;28;20200;-45
2022/06/29 04:27:18;;;;;;;3.33;1.53;;;19.10;99.90;;;;;;5201934;28;20811;-45
2022/06/29 04:29:49;;;;;;;1.40;1.40;;;19.30;99.90;;;;;;5226617;28;20301;-44
2022/06/29 04:32:19;;;;;;;1.43;1.43;;;19.50;99.90;;;;;;5210905;28;20681;-43
2022/06/29 04:34:50;;;;;;;1.40;1.40;;;19.70;99.90;;;;;;5211778;28;20659;-45
2022/06/29 04:37:20;;;;;;;1.90;1.80;;;19.90;99.90;;;;;;5219823;28;20184;-46
2022/06/29 04:39:51;;;;;;;1.93;1.83;;;20.20;99.90;;;;;;5220854;28;20183;-45
2022/06/29 04:42:22;;;;;;;4.07;1.53;;;20.40;99.90;;;;;;5223120;28;20265;-44
2022/06/29 04:44:53;;;;;;;2.50;1.40;;;20.90;99.90;;;;;;5208920;28;20652;-44
2022/06/29 04:47:23;;;;;;;2.07;1.97;;;21.30;99.90;;;;;;5211595;28;20198;-46
2022/06/29 04:49:54;;;;;;;1.60;1.50;;;21.40;99.90;;;;;;5218664;28;20461;-44
2022/06/29 04:52:25;;;;;;;1.73;1.60;;;21.80;99.90;;;;;;5201885;28;20263;-44
2022/06/29 04:54:56;;;;;;;10.40;2.40;;;22.20;99.90;;;;;;5227467;28;20261;-45
2022/06/29 04:57:26;;;;;;;1.83;1.73;;;22.50;99.90;;;;;;5222383;28;20442;-46
2022/06/29 04:59:57;;;;;;;1.53;1.40;;;22.60;99.90;;;;;;5220336;28;20198;-45
2022/06/29 05:02:28;;;;;;;2.60;1.70;;;22.70;98.90;;;;;;5213282;28;20215;-46
2022/06/29 05:04:58;;;;;;;1.80;1.60;;;22.70;98.60;;;;;;5224830;28;20206;-44
2022/06/29 05:07:29;;;;;;;2.40;1.97;;;22.90;97.30;;;;;;5194594;28;20197;-44
2022/06/29 05:09:59;;;;;;;2.63;1.50;;;23.50;96.10;;;;;;5207604;28;20294;-44
2022/06/29 05:12:30;;;;;;;3.70;1.50;;;24.30;92.80;;;;;;5211264;28;20203;-45
2022/06/29 05:15:00;;;;;;;2.53;1.63;;;24.70;89.70;;;;;;5227366;28;20186;-44
2022/06/29 05:17:36;;;;;;;1.20;1.20;;;25.20;84.10;;;;;;5210910;28;20233;-45
2022/06/29 05:20:09;;;;;;;3.77;1.60;;;25.70;78.90;;;;;;5229692;28;20626;-46
2022/06/29 05:22:39;;;;;;;1.70;1.60;;;26.20;73.40;;;;;;5211249;28;20465;-45
2022/06/29 05:25:11;;;;;;;1.83;1.73;;;27.30;67.60;;;;;;5197252;28;20449;-46
2022/06/29 05:27:41;;;;;;;3.70;1.50;;;28.40;60.00;;;;;;5225278;28;20554;-44
2022/06/29 05:30:12;;;;;;;1.63;1.37;;;29.20;56.20;;;;;;5217792;28;20461;-45
2022/06/29 05:32:43;;;;;;;7.63;2.10;;;29.80;53.40;;;;;;5216566;28;20199;-45
2022/06/29 05:35:14;;;;;;;4.77;1.37;;;30.70;50.00;;;;;;5226681;28;20202;-45
2022/06/29 05:37:44;;;;;;;3.80;1.30;;;31.50;48.10;;;;;;5226052;28;20433;-44
2022/06/29 05:40:16;;;;;;;2.93;1.40;;;32.00;46.10;;;;;;5220722;28;20544;-45
2022/06/29 05:42:46;;;;;;;1.63;1.53;;;32.00;44.50;;;;;;5204919;28;20329;-45
2022/06/29 05:45:17;;;;;;;1.53;1.33;;;32.30;43.60;;;;;;5223504;28;20856;-45
2022/06/29 05:47:47;;;;;;;3.77;1.77;;;32.40;42.90;;;;;;5219559;28;20197;-45
2022/06/29 05:50:18;;;;;;;3.27;1.80;;;31.90;43.40;;;;;;5229665;28;20203;-46
2022/06/29 05:52:50;;;;;;;1.27;1.27;;;31.70;43.10;;;;;;5220451;28;20206;-46
2022/06/29 05:55:21;;;;;;;1.70;1.60;;;31.60;43.60;;;;;;5211307;28;20499;-46
2022/06/29 05:57:51;;;;;;;2.57;1.50;;;31.50;43.40;;;;;;5202344;28;20433;-45
2022/06/29 06:00:22;;;;;;;1.90;1.50;;;31.40;43.30;;;;;;5222540;28;20203;-46
2022/06/29 06:02:52;;;;;;;3.17;1.67;;;31.10;44.50;;;;;;5202234;28;20211;-47
2022/06/29 06:05:23;;;;;;;2.73;1.53;;;31.40;43.60;;;;;;5209493;28;20236;-44
2022/06/29 06:07:54;;;;;;;1.47;1.37;;;31.40;42.70;;;;;;5215417;28;21226;-47
2022/06/29 06:10:24;;;;;;;1.30;1.30;;;30.90;43.30;;;;;;5226251;28;20226;-44
2022/06/29 06:12:55;;;;;;;1.63;1.30;;;29.70;45.20;;;;;;5227125;28;20210;-45
2022/06/29 06:15:25;;;;;;;1.40;1.30;;;29.20;46.10;;;;;;5207595;28;20182;-45
2022/06/29 06:17:56;;;;;;;0.93;0.93;;;29.50;46.30;;;;;;5225802;28;20179;-44
2022/06/29 06:20:28;;;;;;;1.30;1.20;;;30.10;44.70;;;;;;5180560;28;20191;-45
2022/06/29 06:22:59;;;;;;;0.77;0.77;;;30.50;43.70;;;;;;5220026;28;20241;-45
2022/06/29 06:25:30;;;;;;;2.50;1.30;;;30.80;43.40;;;;;;5211610;28;20445;-45
2022/06/29 06:28:01;;;;;;;3.63;1.37;;;30.90;43.30;;;;;;5210002;28;20230;-46
2022/06/29 06:30:32;;;;;;;1.23;1.13;;;30.90;42.50;;;;;;5221884;28;20980;-45
2022/06/29 06:33:02;;;;;;;5.90;1.23;;;30.50;43.00;;;;;;5222162;28;20210;-45
2022/06/29 06:35:33;;;;;;;1.40;1.40;;;29.80;44.50;;;;;;5208594;28;20260;-46
2022/06/29 06:38:04;;;;;;;2.73;1.07;;;29.40;45.30;;;;;;5205170;28;20577;-45
2022/06/29 06:43:23;;;;;;;1.10;1.00;;;29.20;45.20;;;;;;5220028;28;20222;-45
2022/06/29 06:45:54;;;;;;;0.83;0.83;;;28.80;44.40;;;;;;5220678;28;20442;-47
2022/06/29 06:48:25;;;;;;;1.20;1.10;;;28.00;45.50;;;;;;5189615;28;20239;-44
2022/06/29 06:50:55;;;;;;;5.57;1.20;;;27.70;45.10;;;;;;5205001;28;20186;-49
2022/06/29 06:53:26;;;;;;;3.93;1.50;;;27.10;45.80;;;;;;5219148;28;20191;-44
2022/06/29 06:55:57;;;;;;;8.50;1.83;;;26.80;47.50;;;;;;5206179;28;20273;-50
2022/06/29 06:58:27;;;;;;;5.13;1.30;;;26.50;47.80;;;;;;5223046;28;20221;-44
2022/06/29 07:00:58;;;;;;;1.80;1.00;;;26.50;47.70;;;;;;5203939;28;20229;-44
2022/06/29 07:03:31;;;;;;;1.70;1.03;;;26.10;47.10;;;;;;5201975;28;20663;-45
2022/06/29 07:06:09;;;;;;;1.90;1.53;;;25.70;48.40;;;;;;5202837;28;20198;-45
2022/06/29 07:08:40;;;;;;;1.37;1.27;;;25.40;49.00;;;;;;5221796;28;20464;-45
2022/06/29 07:11:11;;;;;;;2.20;1.00;;;25.30;49.40;;;;;;5220247;28;20425;-45
2022/06/29 07:13:41;;;;;;;1.00;0.97;;;25.10;49.40;;;;;;5200753;28;20453;-45
2022/06/29 07:16:13;;;;;;;1.07;1.07;;;24.90;48.00;;;;;;5198623;28;20575;-46
2022/06/29 07:18:43;;;;;;;4.07;0.83;;;25.20;47.00;;;;;;5214486;28;20187;-45
2022/06/29 07:21:14;;;;;;;1.17;0.67;;;26.00;45.70;;;;;;5217822;28;20429;-45
2022/06/29 07:23:44;;;;;;;3.10;0.80;;;25.90;45.70;;;;;;5224755;28;20563;-43
2022/06/29 07:26:15;;;;;;;2.23;1.20;;;25.40;46.50;;;;;;5208130;28;20553;-46
2022/06/29 07:28:46;;;;;;;2.37;1.13;;;25.20;47.30;;;;;;5219995;28;20202;-44
2022/06/29 07:31:16;;;;;;;1.40;1.20;;;24.90;47.70;;;;;;5218911;28;20262;-45
2022/06/29 07:33:47;;;;;;;4.20;1.10;;;24.50;48.40;;;;;;5187972;28;20180;-48
2022/06/29 07:36:17;;;;;;;2.57;1.10;;;24.20;48.40;;;;;;5224172;28;20226;-44
2022/06/29 07:38:48;;;;;;;2.90;1.47;;;24.00;48.40;;;;;;5198743;28;20203;-44
2022/06/29 07:41:19;;;;;;;0.73;0.73;;;23.90;48.30;;;;;;5214015;28;20190;-46
2022/06/29 07:43:49;;;;;;;1.53;1.23;;;23.70;48.30;;;;;;5197731;28;20223;-47
2022/06/29 07:46:21;;;;;;;3.60;0.73;;;23.60;48.60;;;;;;5202391;28;20182;-44
2022/06/29 07:48:51;;;;;;;1.70;1.00;;;23.40;48.40;;;;;;5214828;28;20195;-45
2022/06/29 07:51:22;;;;;;;1.80;1.00;;;23.30;48.50;;;;;;5222947;28;21446;-45
2022/06/29 07:53:53;;;;;;;0.93;0.93;;;23.50;48.10;;;;;;5223607;28;20565;-45
2022/06/29 07:56:23;;;;;;;1.17;0.90;;;23.50;47.90;;;;;;5217788;28;20213;-45
2022/06/29 07:58:54;;;;;;;1.40;1.00;;;23.70;48.10;;;;;;5222001;28;20182;-45
2022/06/29 08:01:24;;;;;;;1.37;1.00;;;24.10;48.10;;;;;;5203660;28;20288;-44
2022/06/29 08:03:55;;;;;;;1.33;0.80;;;24.70;46.20;;;;;;5214531;28;20551;-46
2022/06/29 08:06:26;;;;;;;0.73;0.73;;;25.10;45.90;;;;;;5201868;28;20183;-45
2022/06/29 08:08:58;;;;;;;0.80;0.80;;;25.40;44.40;;;;;;5200382;28;20822;-48
2022/06/29 08:11:29;;;;;;;1.63;0.93;;;25.40;45.30;;;;;;5209587;28;20241;-46
2022/06/29 08:14:00;;;;;;;1.30;1.20;;;26.00;44.50;;;;;;5224522;28;20437;-44
2022/06/29 08:16:30;;;;;;;1.57;1.33;;;26.70;42.50;;;;;;5216267;28;20233;-48
2022/06/29 08:19:01;;;;;;;1.17;1.07;;;28.00;40.90;;;;;;5216741;28;20648;-46
2022/06/29 08:21:32;;;;;;;0.60;0.60;;;29.60;38.60;;;;;;5202513;28;20337;-46
2022/06/29 08:24:02;;;;;;;1.80;0.90;;;30.60;36.50;;;;;;5208143;28;20191;-46
2022/06/29 08:26:33;;;;;;;0.90;0.90;;;31.40;34.90;;;;;;5208437;28;20266;-45
2022/06/29 08:29:04;;;;;;;1.30;1.30;;;32.10;33.10;;;;;;5220814;28;20286;-45
2022/06/29 08:31:34;;;;;;;1.20;1.20;;;32.40;33.30;;;;;;5224257;28;20195;-46
2022/06/29 08:34:07;;;;;;;0.73;0.73;;;32.50;32.10;;;;;;5217675;28;20698;-45
2022/06/29 08:36:37;;;;;;;1.17;1.17;;;32.40;31.60;;;;;;5218100;28;22144;-44
2022/06/29 08:39:08;;;;;;;0.97;0.80;;;31.70;31.00;;;;;;5207593;28;20523;-47
2022/06/29 08:41:40;;;;;;;0.70;0.70;;;30.90;32.30;;;;;;5217251;28;20221;-47
2022/06/29 08:44:12;;;;;;;0.80;0.80;;;30.70;31.90;;;;;;5227744;28;20196;-44
2022/06/29 08:46:42;;;;;;;0.77;0.70;;;31.40;31.70;;;;;;5205646;28;20437;-45
2022/06/29 08:49:13;;;;;;;5.60;0.93;;;30.80;32.00;;;;;;5207410;28;20530;-45
2022/06/29 08:51:44;;;;;;;0.80;0.80;;;30.20;33.30;;;;;;5224767;28;20246;-43
2022/06/29 08:54:17;;;;;;;0.60;0.60;;;29.60;32.80;;;;;;5220838;28;20179;-45
2022/06/29 08:56:49;;;;;;;3.67;0.90;;;28.40;34.90;;;;;;5230226;28;20426;-49
2022/06/29 08:59:21;;;;;;;1.90;0.97;;;27.60;36.10;;;;;;5210553;28;20445;-44
2022/06/29 09:01:52;;;;;;;17.33;1.27;;;26.90;37.90;;;;;;5214157;28;20884;-45
2022/06/29 09:04:23;;;;;;;1.03;0.90;;;26.70;37.70;;;;;;5223960;28;20469;-45
2022/06/29 09:06:55;;;;;;;2.77;0.90;;;26.60;37.50;;;;;;5221114;28;20531;-45
2022/06/29 09:09:26;;;;;;;7.60;0.80;;;26.70;38.00;;;;;;5209196;28;20249;-45
2022/06/29 09:11:57;;;;;;;4.10;1.20;;;26.50;38.30;;;;;;5193479;28;20448;-45
2022/06/29 09:14:28;;;;;;;1.57;0.70;;;26.40;38.60;;;;;;5200953;28;20183;-45
2022/06/29 09:17:03;;;;;;;0.60;0.60;;;26.20;37.10;;;;;;5221485;28;20248;-46
2022/06/29 09:19:36;;;;;;;2.80;1.20;;;26.30;36.50;;;;;;5205732;28;20313;-45
2022/06/29 09:22:07;;;;;;;2.43;0.80;;;26.10;37.10;;;;;;5238325;22;20507;-50
2022/06/29 09:24:38;;;;;;;2.33;0.90;;;26.00;38.60;;;;;;5229163;28;20858;-50
2022/06/29 09:27:11;;;;;;;2.40;0.90;;;26.00;39.40;;;;;;5230642;28;20183;-49
2022/06/29 09:29:43;;;;;;;0.50;0.50;;;25.90;39.30;;;;;;5247616;28;20224;-50
2022/06/29 09:32:16;;;;;;;0.80;0.80;;;25.90;39.10;;;;;;5243054;28;20484;-51
2022/06/29 09:34:49;;;;;;;0.80;0.70;;;25.80;39.30;;;;;;5241909;28;20434;-52
2022/06/29 09:37:22;;;;;;;1.00;0.90;;;25.80;40.40;;;;;;5214205;28;20804;-50
2022/06/29 09:39:54;;;;;;;2.43;1.07;;;25.80;40.50;;;;;;5233078;28;20487;-50
2022/06/29 09:42:27;;;;;;;1.00;1.00;;;26.00;41.20;;;;;;5252788;28;20444;-51
2022/06/29 09:44:58;;;;;;;4.63;0.73;;;26.40;41.00;;;;;;5242839;28;20600;-51
2022/06/29 09:47:29;;;;;;;0.87;0.87;;;26.50;39.30;;;;;;5247108;28;20472;-50
2022/06/29 09:50:01;;;;;;;1.00;0.93;;;26.40;39.70;;;;;;5249627;28;20309;-52
2022/06/29 09:52:35;;;;;;;1.03;0.93;;;26.30;40.40;;;;;;5228240;28;20448;-50
2022/06/29 09:55:06;;;;;;;2.63;1.00;;;26.40;40.30;;;;;;5228343;28;20917;-49
2022/06/29 09:57:38;;;;;;;0.90;0.90;;;26.50;39.70;;;;;;5229633;28;20448;-49
2022/06/29 10:03:00;;;;;;;4.10;0.87;;;26.30;40.60;;;;;;5247130;28;20585;-50
2022/06/29 10:05:54;;;;;;;0.90;0.90;;;26.30;40.60;;;;;;5238345;28;20484;-51
2022/06/29 10:08:21;;;;;;;0.70;0.70;;;26.30;41.30;;;;;;5244468;28;20523;-50
2022/06/29 10:11:01;;;;;;;0.80;0.80;;;26.20;40.90;;;;;;5225788;28;21053;-49
2022/06/29 10:13:42;;;;;;;1.50;1.03;;;25.80;41.70;;;;;;5246520;28;20236;-50
2022/06/29 10:16:30;;;;;;;1.40;1.10;;;25.30;41.50;;;;;;5228995;28;20441;-51
2022/06/29 10:19:35;;;;;;;1.80;0.77;;;25.20;42.50;;;;;;5246000;28;20794;-50
2022/06/29 10:22:06;;;;;;;2.87;0.87;;;25.40;42.60;;;;;;5175799;28;20483;-50
2022/06/29 10:24:37;;;;;;;2.97;0.80;;;25.40;42.40;;;;;;5244137;28;20448;-51
2022/06/29 10:27:08;;;;;;;7.00;1.23;;;25.20;41.70;;;;;;5230461;28;20189;-50
2022/06/29 10:29:38;;;;;;;2.77;1.00;;;24.90;41.20;;;;;;5231308;28;20554;-52
2022/06/29 10:32:13;;;;;;;0.80;0.80;;;24.90;41.10;;;;;;5245324;28;20205;-50
2022/06/29 10:37:45;;;;;;;0.93;0.93;;;25.20;40.20;;;;;;5244899;28;20447;-51
2022/06/29 10:40:18;;;;;;;1.50;1.40;;;25.20;40.10;;;;;;5240903;28;20474;-51
2022/06/29 10:43:08;;;;;;;0.90;0.63;;;25.10;40.60;;;;;;5243660;28;20948;-51
2022/06/29 10:45:46;;;;;;;0.60;0.60;;;25.10;41.00;;;;;;5244552;28;20439;-51
2022/06/29 10:48:20;;;;;;;2.93;1.03;;;25.10;40.40;;;;;;5248199;28;20954;-50
2022/06/29 10:50:51;;;;;;;0.63;0.63;;;25.10;40.70;;;;;;5240369;28;20449;-49
2022/06/29 10:53:22;;;;;;;3.30;1.20;;;25.20;40.70;;;;;;5227097;28;20460;-49
2022/06/29 10:55:55;;;;;;;1.63;0.70;;;25.00;40.50;;;;;;5229829;28;20187;-51
2022/06/29 10:58:26;;;;;;;0.97;0.97;;;24.90;40.60;;;;;;5221676;28;20179;-50
2022/06/29 11:00:57;;;;;;;1.03;1.03;;;24.70;41.70;;;;;;5243485;28;20429;-51
2022/06/29 11:03:28;;;;;;;0.80;0.80;;;24.80;41.70;;;;;;5240269;28;20289;-51
2022/06/29 11:12:04;;;;;;;1.73;1.10;;;25.60;40.50;;;;;;5237747;28;20482;-50
2022/06/29 11:17:48;;;;;;;1.17;1.07;;;26.00;40.10;;;;;;5234985;28;20539;-50
2022/06/29 11:20:20;;;;;;;3.40;0.77;;;26.00;40.90;;;;;;5209492;28;20459;-50
2022/06/29 11:22:55;;;;;;;1.97;1.00;;;26.10;40.60;;;;;;5239717;28;20472;-52
2022/06/29 11:25:26;;;;;;;0.97;0.97;;;25.80;40.80;;;;;;5240971;28;20443;-48
2022/06/29 11:27:57;;;;;;;0.70;0.70;;;25.70;40.30;;;;;;5223569;28;20440;-50
2022/06/29 11:30:27;;;;;;;3.33;1.03;;;25.60;39.60;;;;;;5249003;28;20459;-50
2022/06/29 11:32:58;;;;;;;2.67;0.87;;;25.40;40.90;;;;;;5225852;28;20246;-50
2022/06/29 11:35:30;;;;;;;1.30;1.20;;;25.40;41.20;;;;;;5207668;28;20322;-52
2022/06/29 11:38:01;;;;;;;1.40;0.70;;;25.60;41.30;;;;;;5206192;28;20469;-50
2022/06/29 11:40:36;;;;;;;0.70;0.70;;;25.70;40.70;;;;;;5212356;28;21030;-51
2022/06/29 11:43:08;;;;;;;0.67;0.67;;;25.90;40.80;;;;;;5224438;28;20459;-51
2022/06/29 11:45:47;;;;;;;2.27;1.10;;;26.20;40.70;;;;;;5247365;28;20401;-51
2022/06/29 11:48:22;;;;;;;0.80;0.80;;;26.00;40.90;;;;;;5245442;28;20732;-50
2022/06/29 11:50:58;;;;;;;1.10;1.10;;;25.90;41.00;;;;;;5226105;28;20463;-51
2022/06/29 11:53:44;;;;;;;2.10;1.00;;;25.90;41.10;;;;;;5229797;28;20459;-51
2022/06/29 11:56:17;;;;;;;1.20;1.20;;;25.80;41.90;;;;;;5237045;28;20437;-50
2022/06/29 11:58:54;;;;;;;1.07;0.90;;;25.80;41.70;;;;;;5203685;28;20460;-51
2022/06/29 12:01:26;;;;;;;0.50;0.50;;;26.00;40.80;;;;;;5242770;28;20436;-51
2022/06/29 12:04:01;;;;;;;1.00;0.90;;;26.10;39.30;;;;;;5227932;28;20453;-50
2022/06/29 12:06:36;;;;;;;0.67;0.67;;;26.20;38.70;;;;;;5230351;28;20470;-50
2022/06/29 12:09:08;;;;;;;9.83;0.77;;;26.20;38.50;;;;;;5247116;28;20452;-51
2022/06/29 12:11:39;;;;;;;1.37;1.30;;;26.30;37.20;;;;;;5250071;28;20436;-50
2022/06/29 12:14:09;;;;;;;0.67;0.67;;;25.90;37.70;;;;;;5246486;28;20525;-51
2022/06/29 12:16:40;;;;;;;0.90;0.90;;;25.70;36.40;;;;;;5228114;28;20190;-51
2022/06/29 12:19:10;;;;;;;0.70;0.70;;;25.50;36.80;;;;;;5245266;28;20245;-50
2022/06/29 12:21:41;;;;;;;6.40;0.93;;;25.60;37.10;;;;;;5250126;28;20209;-51
2022/06/29 12:24:12;;;;;;;0.60;0.60;;;25.70;37.60;;;;;;5230379;28;20206;-51
2022/06/29 12:26:43;;;;;;;3.30;0.77;;;25.60;37.80;;;;;;5243675;28;20237;-50
2022/06/29 12:29:13;;;;;;;0.90;0.90;;;25.40;38.70;;;;;;5232151;28;20291;-50
2022/06/29 12:31:45;;;;;;;0.73;0.73;;;25.40;39.80;;;;;;5250435;28;20523;-52
2022/06/29 12:34:16;;;;;;;1.47;1.00;;;25.40;39.70;;;;;;5223827;28;20190;-48
2022/06/29 12:36:47;;;;;;;3.23;1.00;;;25.60;39.60;;;;;;5246524;28;20504;-51
2022/06/29 12:39:17;;;;;;;3.73;0.90;;;25.60;37.80;;;;;;5230576;28;20201;-51
2022/06/29 12:41:48;;;;;;;0.77;0.77;;;25.50;37.00;;;;;;5226316;28;20193;-49
2022/06/29 12:44:19;;;;;;;0.70;0.70;;;25.40;38.00;;;;;;5233992;28;20240;-51
2022/06/29 12:46:49;;;;;;;1.20;1.10;;;25.40;37.00;;;;;;5248575;28;20385;-49
2022/06/29 12:49:20;;;;;;;0.60;0.60;;;25.30;37.60;;;;;;5245708;28;20202;-50
2022/06/29 12:51:51;;;;;;;0.90;0.90;;;25.10;38.30;;;;;;5251373;28;20194;-50
2022/06/29 12:54:22;;;;;;;3.03;0.90;;;25.00;38.30;;;;;;5246828;28;20178;-50
2022/06/29 12:56:52;;;;;;;0.57;0.57;;;25.10;38.40;;;;;;5248624;28;20182;-50
2022/06/29 12:59:23;;;;;;;0.70;0.70;;;25.40;39.40;;;;;;5233305;28;20198;-50
2022/06/29 13:01:53;;;;;;;0.80;0.80;;;25.60;37.70;;;;;;5199853;28;20197;-51
2022/06/29 13:04:24;;;;;;;0.80;0.70;;;25.80;37.00;;;;;;5224908;28;20596;-49
2022/06/29 13:06:55;;;;;;;1.00;1.00;;;25.90;38.00;;;;;;5240034;28;20269;-52
2022/06/29 13:09:25;;;;;;;0.93;0.83;;;26.10;38.30;;;;;;5245566;28;20205;-51
2022/06/29 13:11:56;;;;;;;2.10;1.03;;;26.20;37.80;;;;;;5232101;28;20286;-51
2022/06/29 13:14:27;;;;;;;1.33;1.00;;;26.00;37.70;;;;;;5222033;28;20525;-50
2022/06/29 13:16:58;;;;;;;4.20;1.20;;;25.90;37.80;;;;;;5238850;28;20736;-50
2022/06/29 13:19:28;;;;;;;0.87;0.87;;;25.70;38.40;;;;;;5242174;28;20437;-51
2022/06/29 13:21:59;;;;;;;1.90;1.07;;;25.50;39.20;;;;;;5233335;28;20221;-49
2022/06/29 13:24:29;;;;;;;1.90;0.70;;;25.40;39.80;;;;;;5234089;28;20289;-51
2022/06/29 13:27:01;;;;;;;10.63;0.90;;;25.40;39.70;;;;;;5234215;28;20654;-51
2022/06/29 13:29:31;;;;;;;3.40;1.07;;;25.30;39.90;;;;;;5232509;28;20202;-50